Time;durP1;ratioP1;P1;durP2;ratioP2;P2;SDS_P1;SDS_P2;PMS_P1;PMS_P2;Temp;Humidity;BMP_temperature;BMP_pressure;BME280_temperature;BME280_humidity;BME280_pressure;Samples;Min_cycle;Max_cycle;Signal;HPM_P1;HPM_P2
2022/03/24 00:01:55;;;;;;;23.25;16.23;;;13.10;62.50;;;;;;10869921;32;20408;-70
2022/03/24 00:07:58;;;;;;;29.30;18.58;;;13.00;62.60;;;;;;10869898;32;20024;-70
2022/03/24 00:14:00;;;;;;;20.35;16.33;;;12.90;62.70;;;;;;10869638;32;20032;-70
2022/03/24 00:20:03;;;;;;;38.30;27.75;;;12.80;63.00;;;;;;10869395;32;20028;-70
2022/03/24 00:26:05;;;;;;;27.27;20.50;;;12.70;63.00;;;;;;10869270;32;20032;-70
2022/03/24 00:32:08;;;;;;;24.27;19.35;;;12.70;63.20;;;;;;10869158;32;20019;-70
2022/03/24 00:38:11;;;;;;;22.48;16.08;;;12.70;63.20;;;;;;10868815;32;20028;-70
2022/03/24 00:44:15;;;;;;;20.25;16.15;;;12.50;63.50;;;;;;10868722;32;20038;-69
2022/03/24 00:50:18;;;;;;;21.00;17.80;;;12.40;63.60;;;;;;10868129;32;20020;-70
2022/03/24 00:56:23;;;;;;;18.92;13.80;;;12.40;63.80;;;;;;10868337;32;20047;-70
2022/03/24 01:02:27;;;;;;;20.55;15.38;;;12.30;63.90;;;;;;10868928;32;20032;-70
2022/03/24 01:08:31;;;;;;;19.90;14.87;;;12.30;63.90;;;;;;10868385;32;20308;-70
2022/03/24 01:14:35;;;;;;;17.12;13.68;;;12.20;64.20;;;;;;10868208;32;20418;-70
2022/03/24 01:20:40;;;;;;;20.15;15.93;;;12.20;64.40;;;;;;10868043;32;20024;-70
2022/03/24 01:26:42;;;;;;;18.87;14.30;;;12.20;64.50;;;;;;10867920;32;20050;-70
2022/03/24 01:32:45;;;;;;;29.40;21.35;;;12.20;64.60;;;;;;10867779;32;20016;-70
2022/03/24 01:38:47;;;;;;;24.27;16.70;;;12.00;64.50;;;;;;10867727;32;20348;-70
2022/03/24 01:44:54;;;;;;;24.35;17.75;;;11.80;64.70;;;;;;10867586;32;20042;-70
2022/03/24 01:50:56;;;;;;;24.52;18.48;;;11.80;64.80;;;;;;10863408;32;20024;-70
2022/03/24 01:56:59;;;;;;;20.20;15.00;;;11.70;65.10;;;;;;10867904;32;20044;-69
2022/03/24 02:03:04;;;;;;;17.52;12.80;;;11.60;65.30;;;;;;10872123;32;20032;-70
2022/03/24 02:09:07;;;;;;;21.48;14.38;;;11.60;65.30;;;;;;10885478;32;20395;-70
2022/03/24 02:15:10;;;;;;;29.37;21.30;;;11.50;65.40;;;;;;10873667;32;20028;-70
2022/03/24 02:21:15;;;;;;;27.98;21.33;;;11.40;65.50;;;;;;10873174;32;20042;-70
2022/03/24 02:27:17;;;;;;;18.30;14.77;;;11.40;65.10;;;;;;10873323;32;20020;-70
2022/03/24 02:33:22;;;;;;;19.65;16.52;;;11.30;65.20;;;;;;10872882;32;20019;-70
2022/03/24 02:39:24;;;;;;;19.10;14.90;;;11.20;65.60;;;;;;10859263;32;20042;-70
2022/03/24 02:45:26;;;;;;;22.48;17.98;;;11.20;65.80;;;;;;10872399;32;20024;-70
2022/03/24 02:52:05;;;;;;;18.10;14.25;;;11.20;65.80;;;;;;10872241;32;20024;-70
2022/03/24 02:58:08;;;;;;;20.42;16.87;;;11.10;66.00;;;;;;10871944;32;20399;-70
2022/03/24 03:04:12;;;;;;;18.80;13.88;;;11.00;66.30;;;;;;10871864;32;20024;-70
2022/03/24 03:10:14;;;;;;;25.83;18.40;;;10.70;66.80;;;;;;10871015;32;20015;-70
2022/03/24 03:16:16;;;;;;;20.35;14.75;;;10.60;67.00;;;;;;10867219;32;20024;-71
2022/03/24 03:22:18;;;;;;;27.35;24.15;;;10.70;67.10;;;;;;10871145;32;20042;-70
2022/03/24 03:28:20;;;;;;;21.23;16.23;;;10.70;67.00;;;;;;10871080;32;20325;-70
2022/03/24 03:34:24;;;;;;;21.67;17.85;;;10.70;67.00;;;;;;10870715;32;20015;-70
2022/03/24 03:40:27;;;;;;;25.75;17.98;;;10.70;67.00;;;;;;10870401;32;20024;-70
2022/03/24 03:46:29;;;;;;;22.00;15.82;;;10.60;67.10;;;;;;10870214;32;20042;-70
2022/03/24 03:52:32;;;;;;;19.60;13.73;;;10.60;67.10;;;;;;10870182;32;20062;-70
2022/03/24 03:58:41;;;;;;;20.15;15.02;;;10.50;67.10;;;;;;10869825;32;20062;-70
2022/03/24 04:04:43;;;;;;;17.65;13.55;;;10.50;67.20;;;;;;10865622;32;20073;-70
2022/03/24 04:11:09;;;;;;;27.50;21.73;;;10.50;67.30;;;;;;10869581;32;20023;-70
2022/03/24 04:17:12;;;;;;;20.08;14.73;;;10.50;67.30;;;;;;10865950;32;20282;-70
2022/03/24 04:23:14;;;;;;;32.80;23.73;;;10.40;67.00;;;;;;10868882;32;20055;-70
2022/03/24 04:29:16;;;;;;;28.73;22.27;;;10.30;66.80;;;;;;10869000;32;20047;-70
2022/03/24 04:35:19;;;;;;;21.05;16.02;;;10.30;67.20;;;;;;10868685;32;20422;-70
2022/03/24 04:41:23;;;;;;;19.65;15.00;;;10.30;67.10;;;;;;10864351;32;20050;-70
2022/03/24 04:47:26;;;;;;;21.77;16.92;;;10.20;67.20;;;;;;10855021;32;20020;-70
2022/03/24 04:53:28;;;;;;;25.30;17.75;;;10.10;67.30;;;;;;10868311;32;20027;-70
2022/03/24 04:59:30;;;;;;;18.05;13.70;;;10.00;67.70;;;;;;10879465;32;20050;-70
2022/03/24 05:05:36;;;;;;;18.10;13.02;;;9.90;67.60;;;;;;10868226;32;20290;-70
2022/03/24 05:11:46;;;;;;;21.25;14.05;;;9.80;67.80;;;;;;10867908;32;20405;-70
2022/03/24 05:17:48;;;;;;;22.65;17.27;;;9.70;67.90;;;;;;10879336;32;20336;-70
2022/03/24 05:23:51;;;;;;;22.40;16.35;;;9.70;68.20;;;;;;10867711;32;20333;-70
2022/03/24 05:29:53;;;;;;;20.48;15.40;;;9.80;67.70;;;;;;10854259;32;20324;-70
2022/03/24 05:35:55;;;;;;;21.55;15.57;;;9.70;67.90;;;;;;10872924;32;20019;-70
2022/03/24 05:41:58;;;;;;;24.70;18.15;;;9.50;68.40;;;;;;10874494;32;20027;-70
2022/03/24 05:48:38;;;;;;;27.85;20.90;;;9.70;68.10;;;;;;10874370;32;20020;-70
2022/03/24 05:55:13;;;;;;;22.15;16.42;;;9.80;67.90;;;;;;10756549;33;20013;-70
2022/03/24 06:01:16;;;;;;;27.83;19.92;;;9.90;67.80;;;;;;10759276;33;20039;-70
2022/03/24 06:07:18;;;;;;;26.10;19.20;;;9.90;68.10;;;;;;10760058;33;20033;-70
2022/03/24 06:13:20;;;;;;;27.13;19.70;;;10.00;68.20;;;;;;10759875;33;20021;-70
2022/03/24 06:19:22;;;;;;;22.83;17.30;;;10.20;68.20;;;;;;10759110;33;20108;-70
2022/03/24 06:25:24;;;;;;;26.27;22.58;;;10.40;67.90;;;;;;10759020;33;20110;-70
2022/03/24 06:31:27;;;;;;;20.77;16.62;;;10.70;67.70;;;;;;10833717;32;20028;-70
2022/03/24 06:37:30;;;;;;;30.75;23.45;;;11.00;67.40;;;;;;10872039;32;20050;-70
2022/03/24 06:43:38;;;;;;;24.10;19.00;;;10.90;67.30;;;;;;10871261;32;20051;-70
2022/03/24 06:49:40;;;;;;;26.15;17.70;;;11.00;67.50;;;;;;10859227;32;20325;-70
2022/03/24 06:56:05;;;;;;;29.70;19.92;;;11.20;67.10;;;;;;10872203;32;20023;-70
2022/03/24 07:02:08;;;;;;;24.02;18.52;;;11.50;66.70;;;;;;10871454;32;20050;-70
2022/03/24 07:08:11;;;;;;;21.12;15.50;;;11.80;66.40;;;;;;10864039;32;20058;-70
2022/03/24 07:14:15;;;;;;;18.85;14.57;;;12.00;65.90;;;;;;10850975;32;20039;-71
2022/03/24 07:20:17;;;;;;;18.23;13.00;;;12.00;65.90;;;;;;10884541;27;20027;-71
2022/03/24 07:26:19;;;;;;;14.18;11.30;;;12.20;66.10;;;;;;10906925;32;20442;-71
2022/03/24 07:32:21;;;;;;;13.73;10.18;;;12.30;65.70;;;;;;10905613;32;20359;-71
2022/03/24 07:38:24;;;;;;;13.73;9.35;;;12.30;65.60;;;;;;10907027;32;20023;-71
2022/03/24 07:44:25;;;;;;;13.43;8.63;;;12.30;65.80;;;;;;10906695;32;20042;-71
2022/03/24 07:50:28;;;;;;;12.37;9.13;;;12.50;65.50;;;;;;10897716;32;20066;-71
2022/03/24 07:56:32;;;;;;;10.40;6.87;;;12.70;65.60;;;;;;10894317;32;20053;-71
2022/03/24 08:02:43;;;;;;;10.85;7.65;;;12.90;65.40;;;;;;10880304;32;20039;-71
2022/03/24 08:08:45;;;;;;;8.13;5.70;;;13.20;64.90;;;;;;10906109;32;20027;-71
2022/03/24 08:14:47;;;;;;;15.95;6.40;;;13.40;64.60;;;;;;10905570;32;20027;-71
2022/03/24 08:20:51;;;;;;;8.65;5.85;;;13.60;64.10;;;;;;10905091;32;20031;-71
2022/03/24 08:26:53;;;;;;;8.10;5.00;;;13.70;63.90;;;;;;10904234;32;20053;-71
2022/03/24 08:32:56;;;;;;;16.10;10.82;;;13.60;62.50;;;;;;10904940;32;20069;-71
2022/03/24 08:38:59;;;;;;;8.43;5.93;;;13.60;62.50;;;;;;10904162;32;20061;-71
2022/03/24 08:45:02;;;;;;;10.32;6.80;;;13.60;61.10;;;;;;10904533;32;20031;-71
2022/03/24 08:51:28;;;;;;;8.93;5.32;;;13.70;58.80;;;;;;10904296;32;20066;-71
2022/03/24 08:57:31;;;;;;;12.65;7.62;;;13.70;58.00;;;;;;10904162;32;20050;-71
2022/03/24 09:03:33;;;;;;;8.40;5.85;;;13.80;57.30;;;;;;10886525;32;20035;-71
2022/03/24 09:09:35;;;;;;;10.13;6.28;;;14.00;57.40;;;;;;10890393;32;20058;-71
2022/03/24 09:15:37;;;;;;;28.38;10.25;;;14.10;56.00;;;;;;10911533;32;20392;-71
2022/03/24 09:21:44;;;;;;;9.25;6.05;;;14.20;56.30;;;;;;10911097;32;20053;-71
2022/03/24 09:27:52;;;;;;;19.20;8.38;;;14.40;55.80;;;;;;10911183;32;20065;-71
2022/03/24 09:33:54;;;;;;;11.80;9.02;;;14.60;54.30;;;;;;10910968;32;20067;-71
2022/03/24 09:40:06;;;;;;;7.95;5.18;;;14.80;54.40;;;;;;10906612;32;20089;-71
2022/03/24 09:46:09;;;;;;;13.13;8.95;;;15.00;55.10;;;;;;10907555;32;20015;-71
2022/03/24 09:52:12;;;;;;;17.02;11.75;;;15.10;54.20;;;;;;10910342;32;20035;-72
2022/03/24 09:58:14;;;;;;;10.70;7.50;;;15.30;53.60;;;;;;10905777;32;20067;-71
2022/03/24 10:04:22;;;;;;;9.35;5.97;;;15.50;50.80;;;;;;10910081;32;20035;-71
2022/03/24 10:10:43;;;;;;;14.45;10.18;;;15.70;50.80;;;;;;10905499;32;20081;-72
2022/03/24 10:16:45;;;;;;;10.55;7.18;;;16.00;49.40;;;;;;10904877;32;20035;-71
2022/03/24 10:22:54;;;;;;;17.42;9.63;;;16.10;48.70;;;;;;10909169;32;20435;-72
2022/03/24 10:28:59;;;;;;;21.23;9.97;;;16.30;48.70;;;;;;10908922;32;20062;-71
2022/03/24 10:35:11;;;;;;;13.50;8.07;;;16.60;48.20;;;;;;10908350;32;20335;-71
2022/03/24 10:41:28;;;;;;;17.35;11.98;;;16.90;46.40;;;;;;10895233;32;20434;-70
2022/03/24 10:47:52;;;;;;;15.30;9.10;;;17.10;46.70;;;;;;10895822;32;20340;-71
2022/03/24 10:54:03;;;;;;;21.33;13.25;;;17.40;45.90;;;;;;10907805;32;20019;-71
2022/03/24 11:00:05;;;;;;;11.05;8.20;;;17.60;44.80;;;;;;10907717;32;20062;-71
2022/03/24 11:06:29;;;;;;;12.02;9.40;;;17.90;44.00;;;;;;10907678;32;20015;-71
2022/03/24 11:12:38;;;;;;;20.40;16.70;;;18.20;43.00;;;;;;10894541;32;20019;-71
2022/03/24 11:18:41;;;;;;;11.77;9.00;;;18.50;42.50;;;;;;10907461;32;20087;-71
2022/03/24 11:24:43;;;;;;;28.95;15.02;;;18.80;41.70;;;;;;10906000;32;20058;-71
2022/03/24 11:30:46;;;;;;;15.63;8.82;;;19.40;41.30;;;;;;10902528;32;20080;-71
2022/03/24 11:37:08;;;;;;;15.18;11.50;;;19.70;40.20;;;;;;10756218;33;20074;-71
2022/03/24 11:43:25;;;;;;;22.37;11.52;;;20.10;39.90;;;;;;10754471;33;20373;-70
2022/03/24 11:49:29;;;;;;;21.90;12.77;;;20.40;39.60;;;;;;10755939;33;20024;-71
2022/03/24 11:55:31;;;;;;;18.30;12.90;;;20.70;37.40;;;;;;10755390;33;20075;-70
2022/03/24 12:01:35;;;;;;;17.52;14.45;;;20.70;37.40;;;;;;10754821;33;20047;-70
2022/03/24 12:07:37;;;;;;;24.73;18.85;;;20.80;37.10;;;;;;10750633;33;20427;-71
2022/03/24 12:13:55;;;;;;;26.15;21.02;;;20.90;35.40;;;;;;10858985;32;20027;-71
2022/03/24 12:19:59;;;;;;;17.77;15.18;;;20.90;34.40;;;;;;10900026;32;20031;-71
2022/03/24 12:27:08;;;;;;;28.48;22.02;;;21.00;33.20;;;;;;10905135;32;20392;-70
2022/03/24 12:33:14;;;;;;;21.52;14.48;;;21.10;34.10;;;;;;10713835;33;20029;-71
2022/03/24 12:39:35;;;;;;;18.45;12.18;;;21.20;33.70;;;;;;10716697;33;20414;-70
2022/03/24 12:45:38;;;;;;;25.80;19.92;;;21.40;34.30;;;;;;10716571;33;20028;-70
2022/03/24 12:51:53;;;;;;;20.73;17.58;;;21.50;34.10;;;;;;10715031;33;20063;-70
2022/03/24 12:57:56;;;;;;;18.40;14.82;;;21.80;34.40;;;;;;10752568;33;20480;-70
2022/03/24 13:04:00;;;;;;;16.92;11.98;;;21.80;34.00;;;;;;10752212;33;20029;-71
2022/03/24 13:10:09;;;;;;;18.75;13.25;;;21.90;33.50;;;;;;10928905;32;20011;-71
2022/03/24 13:16:22;;;;;;;14.60;12.60;;;21.80;32.60;;;;;;10941780;32;20022;-71
2022/03/24 13:22:26;;;;;;;20.85;18.42;;;21.80;32.20;;;;;;10941551;32;20038;-71
2022/03/24 13:28:31;;;;;;;13.48;10.68;;;21.80;31.60;;;;;;10938679;32;20045;-71
2022/03/24 13:35:03;;;;;;;14.38;12.43;;;21.80;31.60;;;;;;10927818;32;20054;-71
2022/03/24 13:41:07;;;;;;;13.82;9.88;;;21.80;30.90;;;;;;10941401;32;20062;-71
2022/03/24 13:47:09;;;;;;;11.50;8.25;;;21.90;30.60;;;;;;10927805;32;20045;-71
2022/03/24 13:53:26;;;;;;;11.73;9.45;;;22.00;31.20;;;;;;10941037;32;20359;-71
2022/03/24 13:59:33;;;;;;;20.20;7.93;;;22.30;31.50;;;;;;10948026;32;20030;-71
2022/03/24 14:05:55;;;;;;;9.80;7.15;;;22.50;31.10;;;;;;10947941;32;20027;-71
2022/03/24 14:12:27;;;;;;;12.45;5.87;;;22.70;30.40;;;;;;10914906;32;20051;-71
2022/03/24 14:18:30;;;;;;;10.52;7.95;;;22.70;30.20;;;;;;10827976;32;20314;-71
2022/03/24 14:24:45;;;;;;;7.28;5.40;;;22.70;29.60;;;;;;10833747;32;20032;-71
2022/03/24 14:30:47;;;;;;;8.57;5.80;;;22.80;29.00;;;;;;10868278;32;20392;-70
2022/03/24 14:36:50;;;;;;;8.43;5.80;;;22.90;29.90;;;;;;10867840;32;20054;-71
2022/03/24 14:42:52;;;;;;;13.43;6.03;;;23.20;29.80;;;;;;10846746;32;20075;-72
2022/03/24 14:49:05;;;;;;;9.70;6.78;;;23.40;29.40;;;;;;10870278;32;20070;-71
2022/03/24 14:55:08;;;;;;;13.62;6.95;;;23.40;28.70;;;;;;10895120;32;20022;-71
2022/03/24 15:01:10;;;;;;;9.25;6.20;;;23.50;28.90;;;;;;10891082;32;20039;-71
2022/03/24 15:07:35;;;;;;;7.75;6.43;;;23.60;28.60;;;;;;10907166;32;20028;-71
2022/03/24 15:13:37;;;;;;;25.12;5.85;;;23.70;28.30;;;;;;10907511;32;20054;-71
2022/03/24 15:19:40;;;;;;;6.65;5.20;;;23.80;28.20;;;;;;10594618;27;10003143;-70
2022/03/24 15:25:42;;;;;;;8.80;5.22;;;24.00;28.30;;;;;;10894147;32;20015;-71
2022/03/24 15:31:46;;;;;;;10.25;7.47;;;24.30;27.80;;;;;;10907796;32;20027;-70
2022/03/24 15:38:12;;;;;;;6.35;4.00;;;24.60;27.60;;;;;;10893949;32;20027;-71
2022/03/24 15:44:17;;;;;;;7.45;5.12;;;25.10;26.80;;;;;;10933708;32;20399;-69
2022/03/24 15:50:21;;;;;;;7.03;4.70;;;25.50;27.20;;;;;;10943836;32;20023;-69
2022/03/24 15:56:37;;;;;;;8.45;4.85;;;26.00;26.70;;;;;;10943604;32;20057;-69
2022/03/24 16:02:39;;;;;;;6.82;4.80;;;26.30;26.50;;;;;;10929930;32;20049;-69
2022/03/24 16:08:42;;;;;;;7.32;5.03;;;26.60;26.30;;;;;;10943457;32;20049;-69
2022/03/24 16:14:44;;;;;;;5.95;4.40;;;27.00;26.40;;;;;;10913880;32;20019;-69
2022/03/24 16:20:46;;;;;;;6.90;4.70;;;27.40;26.40;;;;;;10904456;32;20031;-70
2022/03/24 16:26:48;;;;;;;7.95;4.10;;;27.70;26.60;;;;;;10900983;32;20328;-69
2022/03/24 16:32:52;;;;;;;11.88;6.87;;;28.10;26.60;;;;;;10904842;32;20019;-70
2022/03/24 16:38:54;;;;;;;14.00;8.50;;;28.30;27.30;;;;;;10904122;32;20298;-69
2022/03/24 16:44:56;;;;;;;14.00;9.98;;;27.90;29.00;;;;;;10900230;32;20027;-70
2022/03/24 16:50:58;;;;;;;14.30;11.45;;;26.90;31.40;;;;;;10904527;32;20019;-70
2022/03/24 16:57:00;;;;;;;15.68;10.52;;;26.10;33.70;;;;;;10904284;32;20324;-70
2022/03/24 17:03:03;;;;;;;23.23;10.85;;;25.50;35.40;;;;;;10904296;32;20023;-69
2022/03/24 17:09:05;;;;;;;12.20;9.77;;;24.90;36.30;;;;;;10903924;32;20035;-69
2022/03/24 17:15:34;;;;;;;11.40;7.93;;;24.20;37.10;;;;;;10923174;32;20046;-70
2022/03/24 17:21:36;;;;;;;13.95;10.25;;;23.20;38.60;;;;;;10938196;32;20057;-69
2022/03/24 17:27:40;;;;;;;13.30;8.80;;;22.50;39.80;;;;;;10941315;32;20022;-69
2022/03/24 17:33:43;;;;;;;14.30;8.75;;;22.00;40.90;;;;;;10948887;32;20343;-69
2022/03/24 17:40:06;;;;;;;16.02;9.07;;;21.60;41.80;;;;;;10948715;32;20022;-69
2022/03/24 17:46:08;;;;;;;13.60;8.07;;;21.30;42.60;;;;;;10948079;32;20022;-69
2022/03/24 17:52:11;;;;;;;15.43;10.02;;;20.90;43.50;;;;;;10943948;32;20020;-69
2022/03/24 17:58:13;;;;;;;12.68;8.75;;;20.60;44.20;;;;;;10934528;32;20023;-69
2022/03/24 18:04:15;;;;;;;14.25;9.68;;;20.30;45.00;;;;;;10947581;32;20064;-69
2022/03/24 18:10:17;;;;;;;13.62;9.18;;;20.20;45.60;;;;;;10934142;32;20319;-69
2022/03/24 18:16:19;;;;;;;16.77;10.88;;;20.00;46.20;;;;;;10934345;32;20031;-70
2022/03/24 18:22:22;;;;;;;16.95;12.43;;;19.80;46.90;;;;;;10891985;32;20031;-69
2022/03/24 18:28:24;;;;;;;16.45;13.27;;;19.70;47.50;;;;;;10909398;32;20019;-69
2022/03/24 18:34:30;;;;;;;20.30;15.63;;;19.50;48.10;;;;;;10908871;32;20023;-69
2022/03/24 18:40:33;;;;;;;17.67;12.45;;;19.30;48.30;;;;;;10908606;32;20320;-69
2022/03/24 18:46:38;;;;;;;20.00;14.38;;;19.30;48.50;;;;;;10908645;32;20042;-69
2022/03/24 18:52:59;;;;;;;20.25;15.05;;;19.30;49.00;;;;;;10908338;32;20295;-69
2022/03/24 18:59:01;;;;;;;17.12;13.05;;;19.20;49.10;;;;;;10908191;32;20461;-69
2022/03/24 19:05:04;;;;;;;19.52;14.15;;;19.10;49.70;;;;;;10907847;32;20023;-69
2022/03/24 19:11:38;;;;;;;18.50;14.80;;;18.80;50.30;;;;;;10907838;32;20016;-69
2022/03/24 19:17:40;;;;;;;19.30;12.82;;;18.60;50.90;;;;;;10893936;32;20032;-69
2022/03/24 19:23:46;;;;;;;18.33;13.82;;;18.50;51.20;;;;;;10905972;32;20035;-69
2022/03/24 19:29:49;;;;;;;15.82;13.20;;;18.50;51.50;;;;;;10892908;32;20327;-69
2022/03/24 19:35:51;;;;;;;19.05;15.30;;;18.30;51.90;;;;;;10906471;32;20367;-69
2022/03/24 19:41:53;;;;;;;18.75;15.82;;;18.30;52.20;;;;;;10899514;32;20306;-69
2022/03/24 19:47:58;;;;;;;21.52;16.77;;;18.10;52.60;;;;;;10869167;32;20047;-69
2022/03/24 19:54:00;;;;;;;18.00;15.45;;;17.90;53.10;;;;;;10894173;32;20035;-69
2022/03/24 20:00:05;;;;;;;21.12;16.98;;;17.90;53.50;;;;;;10905937;32;20031;-69
2022/03/24 20:06:07;;;;;;;24.17;18.08;;;17.90;53.70;;;;;;10907022;32;20031;-69
2022/03/24 20:12:28;;;;;;;22.02;17.12;;;17.80;53.80;;;;;;10905537;32;20046;-69
2022/03/24 20:18:43;;;;;;;21.30;15.32;;;17.80;54.10;;;;;;10905806;32;20050;-69
2022/03/24 20:24:45;;;;;;;17.60;14.32;;;17.70;54.40;;;;;;10905161;32;20016;-69
2022/03/24 20:30:47;;;;;;;24.30;15.40;;;17.60;54.70;;;;;;10904987;32;20028;-69
2022/03/24 20:37:02;;;;;;;21.85;16.87;;;17.50;54.80;;;;;;10904534;32;20023;-69
2022/03/24 20:43:06;;;;;;;30.67;14.32;;;17.50;54.90;;;;;;10904544;32;20054;-69
2022/03/24 20:49:08;;;;;;;16.33;12.70;;;17.30;55.10;;;;;;10891338;32;20035;-69
2022/03/24 20:55:11;;;;;;;16.87;11.98;;;17.20;55.20;;;;;;10900149;32;20399;-69
2022/03/24 21:01:14;;;;;;;20.48;10.55;;;16.90;55.40;;;;;;10904178;32;20407;-69
2022/03/24 21:07:17;;;;;;;18.30;13.93;;;16.70;54.50;;;;;;10903447;32;20027;-69
2022/03/24 21:13:19;;;;;;;13.27;10.43;;;16.60;55.50;;;;;;10904009;32;20051;-68
2022/03/24 21:19:22;;;;;;;16.80;11.90;;;16.70;55.70;;;;;;10903811;32;20415;-69
2022/03/24 21:25:25;;;;;;;16.00;12.30;;;16.80;55.90;;;;;;10903928;32;20397;-69
2022/03/24 21:31:27;;;;;;;13.60;10.40;;;16.80;56.10;;;;;;10903644;32;20027;-69
2022/03/24 21:37:29;;;;;;;20.65;13.52;;;16.80;56.30;;;;;;10903615;32;20347;-69
2022/03/24 21:43:32;;;;;;;14.57;11.82;;;16.80;56.60;;;;;;10903478;32;20408;-69
2022/03/24 21:49:39;;;;;;;16.17;11.27;;;16.70;56.80;;;;;;10903357;32;20343;-69
2022/03/24 21:55:42;;;;;;;15.05;10.80;;;16.70;57.00;;;;;;10903212;32;20031;-69
2022/03/24 22:01:45;;;;;;;19.60;10.88;;;16.50;57.30;;;;;;10903234;32;20031;-69
2022/03/24 22:07:47;;;;;;;19.37;15.38;;;16.30;57.70;;;;;;10889566;32;20066;-69
2022/03/24 22:13:50;;;;;;;23.83;17.20;;;16.20;58.00;;;;;;10903224;32;20343;-69
2022/03/24 22:20:02;;;;;;;27.35;18.27;;;16.20;57.60;;;;;;10909535;32;20028;-69
2022/03/24 22:26:05;;;;;;;20.27;14.90;;;16.10;57.70;;;;;;10909325;32;20031;-69
2022/03/24 22:32:26;;;;;;;19.73;13.85;;;16.10;57.50;;;;;;10909142;32;20023;-69
2022/03/24 22:38:28;;;;;;;20.55;14.68;;;16.00;57.80;;;;;;10909108;32;20026;-69
2022/03/24 22:44:30;;;;;;;23.90;17.67;;;15.80;58.00;;;;;;10908606;32;20061;-69
2022/03/24 22:50:32;;;;;;;20.00;15.05;;;15.70;58.10;;;;;;10908313;32;20031;-69
2022/03/24 22:56:34;;;;;;;20.48;13.48;;;15.70;58.60;;;;;;10908319;32;20054;-69
2022/03/24 23:02:43;;;;;;;22.30;15.70;;;15.70;58.80;;;;;;10908146;32;20027;-69
2022/03/24 23:08:45;;;;;;;17.75;12.82;;;15.30;59.20;;;;;;10903895;32;20086;-69
2022/03/24 23:14:47;;;;;;;20.67;13.85;;;15.20;59.70;;;;;;10907731;32;20042;-69
2022/03/24 23:20:50;;;;;;;28.30;19.35;;;15.10;60.20;;;;;;10908817;27;20027;-69
2022/03/24 23:26:53;;;;;;;25.60;18.90;;;15.00;59.90;;;;;;10902426;32;20027;-69
2022/03/24 23:32:55;;;;;;;19.55;13.05;;;15.00;59.90;;;;;;10907037;32;20015;-69
2022/03/24 23:38:57;;;;;;;17.23;13.38;;;14.80;60.30;;;;;;10906845;32;20040;-69
2022/03/24 23:45:00;;;;;;;16.17;12.60;;;14.70;60.90;;;;;;10906693;32;20331;-69
2022/03/24 23:51:03;;;;;;;30.45;20.98;;;14.70;61.00;;;;;;10906433;32;20027;-69
2022/03/24 23:57:05;;;;;;;21.25;14.13;;;14.50;61.30;;;;;;10906276;32;20373;-69
